Time;durP1;ratioP1;P1;durP2;ratioP2;P2;SDS_P1;SDS_P2;PMS_P1;PMS_P2;Temp;Humidity;BMP_temperature;BMP_pressure;BME280_temperature;BME280_humidity;BME280_pressure;Samples;Min_cycle;Max_cycle;Signal;HPM_P1;HPM_P2
2022/12/07 00:01:14;;;;;;;41.90;22.63;;;3.60;99.90;;;;;;5053904;28;20397;-89
2022/12/07 00:03:41;;;;;;;36.83;20.65;;;4.10;99.90;;;;;;5054252;28;20025;-89
2022/12/07 00:06:09;;;;;;;41.20;22.83;;;3.70;99.90;;;;;;5053489;28;20442;-89
2022/12/07 00:08:36;;;;;;;44.25;23.15;;;3.70;99.90;;;;;;5053386;28;20033;-89
2022/12/07 00:11:06;;;;;;;44.90;23.17;;;4.10;99.90;;;;;;5046772;28;20053;-89
2022/12/07 00:13:34;;;;;;;45.90;22.30;;;3.70;99.90;;;;;;5032249;28;20389;-89
2022/12/07 00:16:11;;;;;;;40.78;21.67;;;3.70;99.90;;;;;;5033483;28;20505;-89
2022/12/07 00:18:37;;;;;;;42.10;22.17;;;3.60;99.90;;;;;;5033720;28;20402;-89
2022/12/07 00:21:06;;;;;;;41.53;22.75;;;3.60;99.90;;;;;;5033238;28;20017;-89
2022/12/07 00:23:33;;;;;;;39.92;22.20;;;3.60;99.90;;;;;;5031996;28;20108;-89
2022/12/07 00:26:14;;;;;;;47.13;22.27;;;3.60;99.90;;;;;;5031811;28;20425;-90
2022/12/07 00:28:40;;;;;;;43.33;22.42;;;3.60;99.90;;;;;;5032379;28;20037;-90
2022/12/07 00:31:08;;;;;;;46.65;22.77;;;3.60;99.90;;;;;;5032771;28;20056;-89
2022/12/07 00:33:35;;;;;;;45.78;22.52;;;3.50;99.90;;;;;;5042871;28;20063;-89
2022/12/07 00:36:04;;;;;;;40.25;22.30;;;3.50;99.90;;;;;;5053403;28;20021;-89
2022/12/07 00:38:32;;;;;;;43.08;22.15;;;3.60;99.90;;;;;;5053078;28;20078;-89
2022/12/07 00:41:08;;;;;;;47.97;22.35;;;3.80;99.90;;;;;;5053182;28;20021;-90
2022/12/07 00:43:34;;;;;;;47.03;23.20;;;3.50;99.90;;;;;;5052350;28;20439;-89
2022/12/07 00:45:59;;;;;;;45.78;22.83;;;3.50;99.90;;;;;;5052751;28;20025;-89
2022/12/07 00:48:25;;;;;;;44.50;22.02;;;3.50;99.90;;;;;;5053016;28;20036;-90
2022/12/07 00:50:51;;;;;;;39.13;21.02;;;3.50;99.90;;;;;;5051840;28;20036;-89
2022/12/07 00:53:19;;;;;;;62.00;34.28;;;3.50;99.90;;;;;;5052939;28;20029;-90
2022/12/07 00:55:46;;;;;;;55.35;30.77;;;4.00;99.90;;;;;;5052333;28;20378;-89
2022/12/07 00:58:12;;;;;;;48.85;25.77;;;3.60;99.90;;;;;;5053288;28;20032;-89
2022/12/07 01:00:40;;;;;;;44.78;23.77;;;3.60;99.90;;;;;;5053082;28;20394;-90
2022/12/07 01:03:07;;;;;;;44.42;21.48;;;3.60;99.90;;;;;;5052743;28;20035;-90
2022/12/07 01:05:33;;;;;;;38.65;20.85;;;3.70;99.90;;;;;;5053283;28;20113;-89
2022/12/07 01:07:59;;;;;;;41.30;22.08;;;3.60;99.90;;;;;;5052969;28;20108;-90
2022/12/07 01:10:25;;;;;;;43.22;21.50;;;3.70;99.90;;;;;;5049381;28;20029;-89
2022/12/07 01:12:51;;;;;;;45.92;23.25;;;3.60;99.90;;;;;;5033674;28;20029;-89
2022/12/07 01:15:16;;;;;;;42.53;21.55;;;4.00;99.90;;;;;;5031705;28;20081;-89
2022/12/07 01:17:42;;;;;;;41.80;21.63;;;3.70;99.90;;;;;;5032888;28;20382;-89
2022/12/07 01:20:08;;;;;;;43.35;21.95;;;3.70;99.90;;;;;;5032939;28;20033;-89
2022/12/07 01:22:40;;;;;;;39.53;20.50;;;3.70;99.90;;;;;;5034142;28;20017;-89
2022/12/07 01:25:07;;;;;;;45.22;20.55;;;3.70;99.90;;;;;;5032417;28;20029;-90
2022/12/07 01:27:34;;;;;;;44.42;21.45;;;3.70;99.90;;;;;;5032305;28;20041;-89
2022/12/07 01:30:00;;;;;;;48.83;22.38;;;3.70;99.90;;;;;;5033011;28;20051;-89
2022/12/07 01:32:26;;;;;;;42.75;21.77;;;3.70;99.90;;;;;;5033207;28;20021;-89
2022/12/07 01:34:52;;;;;;;45.45;21.75;;;3.90;99.90;;;;;;5052321;28;20041;-90
2022/12/07 01:37:17;;;;;;;39.70;20.95;;;3.70;99.90;;;;;;5051285;28;20029;-90
2022/12/07 01:39:43;;;;;;;44.30;21.92;;;3.60;99.90;;;;;;5052399;28;20488;-89
2022/12/07 01:42:12;;;;;;;45.22;21.08;;;4.00;99.90;;;;;;5052453;28;20049;-89
2022/12/07 01:45:15;;;;;;;40.00;21.20;;;3.60;99.90;;;;;;5052394;28;20044;-89
2022/12/07 01:47:43;;;;;;;44.22;21.70;;;3.70;99.90;;;;;;5052539;28;20021;-89
2022/12/07 01:50:09;;;;;;;42.65;21.30;;;3.80;99.90;;;;;;5052089;28;20162;-89
2022/12/07 01:52:36;;;;;;;43.03;21.02;;;3.70;99.90;;;;;;5052198;28;20035;-89
2022/12/07 01:55:06;;;;;;;38.13;19.30;;;3.70;99.90;;;;;;5051150;28;20032;-89
2022/12/07 01:57:34;;;;;;;44.60;21.00;;;3.70;99.90;;;;;;5050972;28;20114;-89
2022/12/07 02:00:01;;;;;;;38.45;19.90;;;3.60;99.90;;;;;;5051245;28;20515;-89
2022/12/07 02:02:34;;;;;;;36.22;19.73;;;4.00;99.90;;;;;;5053094;28;20021;-89
2022/12/07 02:05:02;;;;;;;40.50;19.55;;;3.70;99.90;;;;;;5051934;28;20079;-90
2022/12/07 02:07:29;;;;;;;36.15;18.83;;;4.00;99.90;;;;;;5051903;28;20133;-89
2022/12/07 02:09:55;;;;;;;37.60;19.33;;;3.60;99.90;;;;;;5052407;28;20032;-89
2022/12/07 02:12:22;;;;;;;40.97;19.95;;;3.60;99.90;;;;;;5033992;28;20109;-89
2022/12/07 02:14:48;;;;;;;38.22;19.23;;;3.60;99.90;;;;;;5035867;28;20033;-89
2022/12/07 02:17:36;;;;;;;38.15;19.15;;;3.60;99.90;;;;;;5034322;28;20026;-89
2022/12/07 02:20:16;;;;;;;41.60;20.75;;;4.00;99.90;;;;;;5036220;28;20080;-89
2022/12/07 02:23:18;;;;;;;43.05;20.27;;;3.60;99.90;;;;;;5036176;28;20075;-89
2022/12/07 02:25:59;;;;;;;46.38;21.20;;;3.70;99.90;;;;;;5035841;28;20061;-89
2022/12/07 02:28:55;;;;;;;44.28;20.70;;;3.70;99.90;;;;;;5035803;28;20037;-90
2022/12/07 02:31:23;;;;;;;43.42;20.77;;;3.60;99.90;;;;;;5035440;28;20061;-89
2022/12/07 02:33:57;;;;;;;45.28;21.73;;;3.70;99.90;;;;;;5047244;28;20056;-89
2022/12/07 02:36:29;;;;;;;42.33;20.13;;;3.90;99.90;;;;;;5055267;28;20083;-89
2022/12/07 02:39:00;;;;;;;49.78;21.75;;;4.10;99.90;;;;;;5055725;28;20021;-90
2022/12/07 02:41:29;;;;;;;45.05;20.27;;;3.60;99.90;;;;;;5055747;28;20029;-89
2022/12/07 02:43:59;;;;;;;46.42;20.58;;;3.80;99.90;;;;;;5054214;28;20040;-89
2022/12/07 02:46:37;;;;;;;45.30;21.35;;;3.70;99.90;;;;;;5055264;28;20397;-90
2022/12/07 02:49:03;;;;;;;41.00;20.42;;;4.00;99.90;;;;;;5055030;28;20037;-88
2022/12/07 02:51:33;;;;;;;45.72;21.45;;;3.70;99.90;;;;;;5055192;28;20100;-89
2022/12/07 02:53:59;;;;;;;48.28;20.77;;;3.70;99.90;;;;;;5055051;28;20094;-89
2022/12/07 02:56:43;;;;;;;43.97;20.27;;;3.70;99.90;;;;;;5053302;28;20028;-89
2022/12/07 02:59:29;;;;;;;41.40;19.27;;;3.70;99.90;;;;;;5053639;28;20053;-89
2022/12/07 03:02:28;;;;;;;42.05;20.30;;;3.70;99.90;;;;;;5055518;28;20028;-89
2022/12/07 03:05:17;;;;;;;43.50;19.88;;;3.50;99.90;;;;;;5055092;28;20029;-88
2022/12/07 03:08:04;;;;;;;43.33;20.65;;;3.50;99.90;;;;;;5054771;28;20067;-89
2022/12/07 03:10:54;;;;;;;40.63;19.65;;;3.50;99.90;;;;;;5052386;28;20135;-89
2022/12/07 03:13:39;;;;;;;36.95;19.08;;;3.60;99.90;;;;;;5035776;28;20037;-89
2022/12/07 03:16:16;;;;;;;33.42;17.85;;;3.60;99.90;;;;;;5034862;28;20029;-89
2022/12/07 03:18:53;;;;;;;33.53;18.50;;;3.70;99.90;;;;;;5035439;28;20025;-89
2022/12/07 03:21:23;;;;;;;30.65;17.48;;;3.60;99.90;;;;;;5033463;28;20520;-89
2022/12/07 03:23:53;;;;;;;29.52;16.67;;;3.60;99.90;;;;;;5034138;28;20478;-89
2022/12/07 03:26:21;;;;;;;31.30;17.67;;;4.00;99.90;;;;;;5034765;28;20107;-90
2022/12/07 03:28:52;;;;;;;30.40;17.08;;;3.50;99.90;;;;;;5034033;28;20041;-88
2022/12/07 03:31:22;;;;;;;31.40;17.75;;;3.60;99.90;;;;;;5034245;28;20087;-89
2022/12/07 03:34:16;;;;;;;34.65;18.83;;;3.50;99.90;;;;;;5045725;28;20029;-90
2022/12/07 03:36:52;;;;;;;31.40;18.05;;;3.50;99.90;;;;;;5053164;28;20021;-89
2022/12/07 03:39:41;;;;;;;30.45;18.17;;;3.90;99.90;;;;;;5054142;28;20025;-89
2022/12/07 03:42:10;;;;;;;31.65;17.90;;;3.60;99.90;;;;;;5054340;28;20025;-90
2022/12/07 03:44:37;;;;;;;33.10;17.90;;;3.70;99.90;;;;;;5053790;28;20021;-91
2022/12/07 03:47:27;;;;;;;33.15;18.38;;;3.70;99.90;;;;;;5053938;28;20036;-89
2022/12/07 03:50:06;;;;;;;34.00;18.70;;;3.70;99.90;;;;;;5054224;28;20489;-89
2022/12/07 03:52:55;;;;;;;30.27;17.27;;;3.70;99.90;;;;;;5054675;28;20013;-89
2022/12/07 03:55:31;;;;;;;29.05;16.73;;;3.70;99.90;;;;;;5054050;28;20029;-89
2022/12/07 03:58:02;;;;;;;31.17;17.42;;;3.80;99.90;;;;;;5054079;28;20033;-89
2022/12/07 04:00:28;;;;;;;29.88;17.02;;;3.80;99.90;;;;;;5053563;28;20393;-89
2022/12/07 04:02:54;;;;;;;28.77;15.70;;;3.80;99.90;;;;;;5053887;28;20029;-90
2022/12/07 04:05:20;;;;;;;29.88;16.65;;;3.80;99.90;;;;;;5053628;28;20025;-89
2022/12/07 04:07:46;;;;;;;31.52;16.85;;;3.60;99.90;;;;;;5053744;28;20024;-89
2022/12/07 04:10:11;;;;;;;30.58;16.75;;;4.00;99.90;;;;;;5054405;28;20029;-89
2022/12/07 04:12:37;;;;;;;35.28;18.13;;;3.60;99.90;;;;;;5034566;28;20029;-90
2022/12/07 04:15:04;;;;;;;36.67;18.05;;;3.80;99.90;;;;;;5032221;28;20040;-89
2022/12/07 04:17:30;;;;;;;31.05;17.95;;;3.50;99.90;;;;;;5033641;28;20025;-89
2022/12/07 04:19:55;;;;;;;31.15;16.98;;;3.50;99.90;;;;;;5033974;28;20082;-89
2022/12/07 04:22:22;;;;;;;35.20;18.48;;;3.60;99.90;;;;;;5032526;28;20570;-89
2022/12/07 04:24:48;;;;;;;35.67;18.08;;;3.60;99.90;;;;;;5034025;28;20030;-89
2022/12/07 04:27:13;;;;;;;39.72;19.48;;;3.60;99.90;;;;;;5033270;28;20056;-90
2022/12/07 04:29:39;;;;;;;36.13;19.33;;;3.60;99.90;;;;;;5032926;28;20045;-89
2022/12/07 04:32:05;;;;;;;33.95;18.85;;;3.70;99.90;;;;;;5032708;28;20083;-89
2022/12/07 04:34:30;;;;;;;38.28;19.15;;;4.10;99.90;;;;;;5050868;28;20035;-89
2022/12/07 04:36:56;;;;;;;34.58;18.20;;;3.90;99.90;;;;;;5052662;28;20028;-90
2022/12/07 04:39:31;;;;;;;34.80;17.42;;;3.80;99.90;;;;;;5052958;28;20059;-90
2022/12/07 04:41:57;;;;;;;37.63;18.83;;;3.70;99.90;;;;;;5052458;28;20017;-89
2022/12/07 04:44:23;;;;;;;42.05;20.33;;;3.70;99.90;;;;;;5052521;28;20108;-89
2022/12/07 04:46:50;;;;;;;36.30;18.98;;;3.80;99.90;;;;;;5052595;28;20056;-90
2022/12/07 04:49:15;;;;;;;37.90;18.48;;;3.80;99.90;;;;;;5053132;28;20040;-89
2022/12/07 04:51:42;;;;;;;36.22;18.73;;;3.60;99.90;;;;;;5051681;28;20044;-89
2022/12/07 04:54:08;;;;;;;34.28;17.42;;;3.70;99.90;;;;;;5053082;28;20036;-89
2022/12/07 04:56:35;;;;;;;38.33;18.80;;;3.70;99.90;;;;;;5052638;28;20149;-90
2022/12/07 04:59:01;;;;;;;35.63;18.02;;;3.70;99.90;;;;;;5051534;28;20111;-89
2022/12/07 05:01:27;;;;;;;37.17;18.58;;;3.80;99.90;;;;;;5052731;28;20027;-89
2022/12/07 05:03:53;;;;;;;37.25;18.10;;;3.70;99.90;;;;;;5052450;28;20439;-89
2022/12/07 05:06:19;;;;;;;35.45;18.42;;;3.60;99.90;;;;;;5052635;28;20390;-89
2022/12/07 05:08:45;;;;;;;34.28;16.75;;;3.90;99.90;;;;;;5052335;28;20025;-89
2022/12/07 05:11:37;;;;;;;35.38;17.65;;;3.80;99.90;;;;;;5044194;28;20029;-89
2022/12/07 05:13:57;;;;;;;40.28;18.52;;;3.70;99.90;;;;;;5032290;28;20029;-90
2022/12/07 05:16:24;;;;;;;39.70;18.88;;;3.80;99.90;;;;;;5031990;28;20028;-89
2022/12/07 05:18:50;;;;;;;41.15;19.63;;;3.60;99.90;;;;;;5026854;28;20025;-89
2022/12/07 05:21:16;;;;;;;39.30;18.88;;;3.50;99.90;;;;;;5012825;28;20073;-90
2022/12/07 05:23:42;;;;;;;43.88;18.83;;;3.60;99.90;;;;;;5012703;28;20422;-89
2022/12/07 05:26:07;;;;;;;40.90;19.35;;;3.50;99.90;;;;;;5011302;28;20057;-89
2022/12/07 05:28:33;;;;;;;41.08;19.00;;;4.00;99.90;;;;;;5011128;28;20502;-90
2022/12/07 05:30:59;;;;;;;39.05;18.92;;;3.50;99.90;;;;;;5012208;28;20125;-89
2022/12/07 05:33:24;;;;;;;43.65;19.38;;;3.40;99.90;;;;;;5029321;28;20025;-89
2022/12/07 05:35:50;;;;;;;44.38;20.40;;;3.40;99.90;;;;;;5051986;28;20063;-88
2022/12/07 05:38:15;;;;;;;46.63;21.23;;;3.60;99.90;;;;;;5050629;28;20047;-89
2022/12/07 05:40:41;;;;;;;44.20;21.17;;;3.50;99.90;;;;;;5050132;28;20416;-89
2022/12/07 05:43:07;;;;;;;51.65;25.77;;;3.60;99.90;;;;;;5052284;28;20106;-89
2022/12/07 05:45:33;;;;;;;50.28;23.50;;;3.60;99.90;;;;;;5051960;28;20032;-89
2022/12/07 05:47:58;;;;;;;45.45;21.35;;;3.80;99.90;;;;;;5054201;28;20028;-89
2022/12/07 05:50:24;;;;;;;48.15;21.88;;;3.60;99.90;;;;;;5056174;28;20025;-89
2022/12/07 05:52:49;;;;;;;56.25;22.98;;;3.60;99.90;;;;;;5055967;28;20017;-89
2022/12/07 05:55:15;;;;;;;49.90;22.20;;;3.60;99.90;;;;;;5055478;28;20028;-89
2022/12/07 05:59:22;;;;;;;68.35;33.70;;;3.60;99.90;;;;;;5054805;28;20481;-89
2022/12/07 06:00:26;;;;;;;57.20;25.27;;;3.60;99.90;;;;;;5056026;28;20021;-89
2022/12/07 06:02:52;;;;;;;56.10;26.75;;;3.60;99.90;;;;;;5054020;28;20536;-89
2022/12/07 06:05:17;;;;;;;48.40;21.60;;;3.50;99.90;;;;;;5055916;28;20057;-90
2022/12/07 06:07:43;;;;;;;57.83;24.33;;;3.50;99.90;;;;;;5055603;28;20025;-89
2022/12/07 06:10:09;;;;;;;55.53;22.50;;;3.50;99.90;;;;;;5055282;28;20032;-89
2022/12/07 06:12:35;;;;;;;54.92;23.10;;;3.90;99.90;;;;;;5035815;28;20037;-89
2022/12/07 06:15:01;;;;;;;48.15;21.15;;;3.70;99.90;;;;;;5035510;28;20025;-89
2022/12/07 06:17:26;;;;;;;54.35;22.58;;;3.90;99.90;;;;;;5035277;28;20030;-89
2022/12/07 06:19:52;;;;;;;54.33;25.95;;;3.60;99.90;;;;;;5035331;28;20053;-89
2022/12/07 06:22:18;;;;;;;50.47;22.85;;;3.40;99.90;;;;;;5035534;28;20025;-89
2022/12/07 06:24:44;;;;;;;54.15;22.58;;;3.60;99.90;;;;;;5035215;28;20544;-89
2022/12/07 06:27:09;;;;;;;52.55;22.75;;;3.60;99.90;;;;;;5034580;28;20141;-89
2022/12/07 06:29:36;;;;;;;48.03;22.15;;;3.90;99.90;;;;;;5035247;28;20037;-89
2022/12/07 06:32:02;;;;;;;53.42;22.40;;;4.00;99.90;;;;;;5035218;28;20397;-88
2022/12/07 06:34:27;;;;;;;63.17;23.67;;;3.50;99.90;;;;;;5052572;28;20112;-89
2022/12/07 06:36:54;;;;;;;60.65;23.98;;;3.60;99.90;;;;;;5054977;28;20169;-88
2022/12/07 06:39:28;;;;;;;56.33;22.75;;;3.60;99.90;;;;;;5054955;28;20033;-89
2022/12/07 06:41:54;;;;;;;56.50;22.98;;;3.60;99.90;;;;;;5055391;28;20047;-89
2022/12/07 06:44:21;;;;;;;53.92;21.77;;;3.80;99.90;;;;;;5054827;28;20044;-90
2022/12/07 06:46:47;;;;;;;61.00;24.25;;;3.60;99.90;;;;;;5055253;28;20090;-89
2022/12/07 06:49:13;;;;;;;56.20;23.23;;;4.00;99.90;;;;;;5054725;28;20548;-89
2022/12/07 06:51:41;;;;;;;60.25;22.58;;;3.60;99.90;;;;;;5054776;28;20020;-89
2022/12/07 06:54:10;;;;;;;59.22;21.80;;;4.00;99.90;;;;;;5054473;28;20059;-89
2022/12/07 06:56:36;;;;;;;66.53;22.83;;;3.70;99.90;;;;;;5054485;28;20103;-89
2022/12/07 06:59:03;;;;;;;57.35;22.40;;;3.70;99.90;;;;;;5053869;28;20389;-89
2022/12/07 07:01:29;;;;;;;62.67;23.45;;;3.70;99.90;;;;;;5054668;28;20388;-90
2022/12/07 07:03:55;;;;;;;52.40;21.50;;;3.70;99.90;;;;;;5054980;28;20107;-89
2022/12/07 07:06:20;;;;;;;54.40;22.15;;;3.70;99.90;;;;;;5054526;28;20507;-89
2022/12/07 07:08:46;;;;;;;56.95;22.00;;;3.70;99.90;;;;;;5052734;28;20072;-90
2022/12/07 07:11:12;;;;;;;55.85;22.02;;;3.70;99.90;;;;;;5046292;28;20071;-89
2022/12/07 07:13:38;;;;;;;51.42;21.13;;;3.80;99.90;;;;;;5034907;28;20038;-90
2022/12/07 07:16:04;;;;;;;51.00;20.80;;;3.80;99.90;;;;;;5033973;28;20497;-89
2022/12/07 07:18:30;;;;;;;45.17;19.92;;;3.70;99.90;;;;;;5033740;28;20029;-89
2022/12/07 07:20:55;;;;;;;46.20;20.08;;;3.80;99.90;;;;;;5034461;28;20032;-89
2022/12/07 07:23:21;;;;;;;44.95;19.25;;;3.90;99.90;;;;;;5032696;28;20091;-89
2022/12/07 07:25:47;;;;;;;42.55;18.38;;;3.80;99.90;;;;;;5032675;28;20124;-89
2022/12/07 07:28:14;;;;;;;37.47;17.27;;;3.80;99.90;;;;;;5032698;28;20552;-90
2022/12/07 07:30:39;;;;;;;34.95;16.58;;;3.80;99.90;;;;;;5034203;28;20566;-90
2022/12/07 07:33:05;;;;;;;40.80;17.25;;;3.70;99.90;;;;;;5038386;28;20105;-89
2022/12/07 07:35:33;;;;;;;38.63;17.70;;;3.90;99.90;;;;;;5054002;28;20029;-89
2022/12/07 07:37:59;;;;;;;40.55;19.05;;;3.90;99.90;;;;;;5053635;28;20436;-89
2022/12/07 07:40:25;;;;;;;42.70;17.80;;;4.30;99.90;;;;;;5052779;28;20028;-89
2022/12/07 07:42:52;;;;;;;38.70;17.45;;;3.80;99.90;;;;;;5053855;28;20029;-90
2022/12/07 07:45:19;;;;;;;37.38;17.35;;;4.30;99.90;;;;;;5053675;28;20033;-89
2022/12/07 07:47:45;;;;;;;43.00;17.60;;;4.20;99.90;;;;;;5053700;28;20106;-89
2022/12/07 07:50:11;;;;;;;43.38;19.00;;;4.10;99.90;;;;;;5054082;28;20493;-89
2022/12/07 07:52:36;;;;;;;45.40;21.42;;;3.80;99.90;;;;;;5053308;28;20413;-89
2022/12/07 07:55:02;;;;;;;41.03;18.77;;;3.80;99.90;;;;;;5053411;28;20033;-89
2022/12/07 07:57:28;;;;;;;41.67;18.65;;;3.90;99.90;;;;;;5053748;28;20018;-90
2022/12/07 07:59:53;;;;;;;39.55;19.42;;;3.90;99.90;;;;;;5053645;28;20029;-89
2022/12/07 08:02:20;;;;;;;42.28;20.50;;;4.20;99.90;;;;;;5053516;28;20027;-90
2022/12/07 08:04:46;;;;;;;41.40;19.08;;;3.80;99.90;;;;;;5053730;28;20079;-89
2022/12/07 08:07:13;;;;;;;43.78;19.52;;;3.90;99.90;;;;;;5052971;28;20025;-90
2022/12/07 08:09:39;;;;;;;41.22;19.48;;;3.80;99.90;;;;;;5053621;28;20029;-89
2022/12/07 08:12:05;;;;;;;40.78;19.63;;;3.80;99.90;;;;;;5037057;28;20036;-89
2022/12/07 08:14:31;;;;;;;41.13;18.83;;;3.90;99.90;;;;;;5033312;28;20030;-89
2022/12/07 08:16:57;;;;;;;44.08;22.55;;;3.90;99.90;;;;;;5033345;28;20029;-88
2022/12/07 08:19:23;;;;;;;37.20;17.88;;;4.30;99.90;;;;;;5033309;28;20025;-90
2022/12/07 08:21:48;;;;;;;35.38;16.90;;;4.40;99.90;;;;;;5031600;28;20064;-89
2022/12/07 08:24:14;;;;;;;36.15;16.90;;;3.90;99.90;;;;;;5033312;28;20025;-90
2022/12/07 08:26:40;;;;;;;32.03;15.30;;;3.90;99.90;;;;;;5032413;28;20041;-89
2022/12/07 08:29:06;;;;;;;32.72;16.15;;;4.00;99.90;;;;;;5032072;28;20090;-89
2022/12/07 08:31:32;;;;;;;33.83;16.08;;;4.40;99.90;;;;;;5033017;28;20482;-89
2022/12/07 08:33:58;;;;;;;32.45;16.10;;;4.50;99.90;;;;;;5045760;28;20171;-89
2022/12/07 08:36:24;;;;;;;33.72;17.52;;;4.20;99.90;;;;;;5052612;28;20036;-90
2022/12/07 08:38:50;;;;;;;30.33;15.63;;;4.10;99.90;;;;;;5052984;28;20040;-89
2022/12/07 08:41:15;;;;;;;26.27;13.23;;;4.50;99.90;;;;;;5051520;28;20028;-90
2022/12/07 08:43:41;;;;;;;28.70;13.75;;;4.20;99.90;;;;;;5051361;28;20029;-90
2022/12/07 08:46:40;;;;;;;28.67;15.10;;;4.20;99.90;;;;;;5052911;28;20017;-89
2022/12/07 08:49:17;;;;;;;31.88;15.23;;;4.20;99.90;;;;;;5050845;28;20116;-89
2022/12/07 08:51:43;;;;;;;33.67;15.70;;;4.60;99.90;;;;;;5052466;28;20025;-89
2022/12/07 08:54:12;;;;;;;31.25;15.10;;;4.30;99.90;;;;;;5051151;28;20032;-90
2022/12/07 08:56:38;;;;;;;29.13;14.43;;;4.30;99.90;;;;;;5052511;28;20448;-89
2022/12/07 08:59:05;;;;;;;27.13;15.65;;;4.30;99.90;;;;;;5051155;28;20029;-89
2022/12/07 09:01:30;;;;;;;34.25;17.48;;;4.60;99.90;;;;;;5052599;28;20031;-89
2022/12/07 09:03:56;;;;;;;27.30;14.00;;;4.40;99.90;;;;;;5051089;28;20021;-89
2022/12/07 09:06:22;;;;;;;25.98;14.80;;;4.70;99.90;;;;;;5052241;28;20531;-89
2022/12/07 09:08:51;;;;;;;29.30;15.50;;;4.30;99.90;;;;;;5052316;28;20064;-90
2022/12/07 09:11:16;;;;;;;24.88;13.50;;;4.20;99.90;;;;;;5043979;28;20056;-89
2022/12/07 09:13:42;;;;;;;26.08;13.45;;;4.10;99.90;;;;;;5032352;28;20079;-89
2022/12/07 09:16:07;;;;;;;24.67;13.10;;;4.20;99.90;;;;;;5032284;28;20509;-90
2022/12/07 09:18:33;;;;;;;25.85;13.73;;;4.70;99.90;;;;;;5032060;28;20052;-89
2022/12/07 09:20:59;;;;;;;23.50;13.20;;;4.40;99.90;;;;;;5031432;28;20033;-90
2022/12/07 09:23:24;;;;;;;26.85;13.82;;;4.80;99.90;;;;;;5030653;28;20048;-89
2022/12/07 09:25:50;;;;;;;27.58;14.55;;;4.30;99.90;;;;;;5031910;28;20478;-89
2022/12/07 09:28:16;;;;;;;31.17;16.50;;;4.20;99.90;;;;;;5032323;28;20037;-89
2022/12/07 09:30:49;;;;;;;28.40;16.17;;;4.70;99.90;;;;;;5032163;28;20045;-90
2022/12/07 09:33:15;;;;;;;29.20;15.88;;;4.40;99.90;;;;;;5038637;28;20048;-89
2022/12/07 09:35:48;;;;;;;30.95;18.83;;;4.40;99.90;;;;;;5052274;28;20147;-90
2022/12/07 09:38:14;;;;;;;26.92;15.75;;;4.20;99.90;;;;;;5052889;28;20025;-89
2022/12/07 09:40:40;;;;;;;27.95;16.13;;;4.30;99.90;;;;;;5051928;28;20025;-89
2022/12/07 09:43:20;;;;;;;29.17;14.68;;;4.20;99.90;;;;;;5050654;28;20036;-89
2022/12/07 09:45:51;;;;;;;30.42;15.60;;;4.30;99.90;;;;;;5050575;28;20052;-89
2022/12/07 09:48:19;;;;;;;26.83;14.20;;;4.20;99.90;;;;;;5051431;28;20048;-89
2022/12/07 09:50:48;;;;;;;32.38;16.75;;;4.20;99.90;;;;;;5051768;28;20068;-89
2022/12/07 09:53:29;;;;;;;28.83;15.93;;;4.30;99.90;;;;;;5052094;28;20032;-89
2022/12/07 09:55:55;;;;;;;29.10;16.27;;;4.30;99.90;;;;;;5055192;28;20033;-89
2022/12/07 09:58:25;;;;;;;29.95;17.70;;;4.50;99.90;;;;;;5051714;28;20496;-89
2022/12/07 10:00:58;;;;;;;26.50;15.77;;;4.50;99.90;;;;;;5051753;28;20477;-90
2022/12/07 10:03:25;;;;;;;27.10;16.35;;;4.40;99.90;;;;;;5050480;28;20187;-90
2022/12/07 10:05:52;;;;;;;29.88;17.23;;;4.40;99.90;;;;;;5051676;28;20429;-89
2022/12/07 10:08:17;;;;;;;27.85;17.58;;;4.60;99.90;;;;;;5051607;28;20481;-89
2022/12/07 10:10:44;;;;;;;29.58;17.35;;;4.70;99.90;;;;;;5048031;28;20040;-90
2022/12/07 10:13:19;;;;;;;27.02;16.40;;;4.60;99.90;;;;;;5031545;28;20025;-88
2022/12/07 10:15:57;;;;;;;31.13;16.38;;;4.90;99.90;;;;;;5031489;28;20021;-90
2022/12/07 10:18:38;;;;;;;65.30;50.85;;;4.60;99.90;;;;;;5030638;28;20493;-89
2022/12/07 10:21:12;;;;;;;43.30;28.25;;;4.50;99.90;;;;;;5031620;28;20021;-89
2022/12/07 10:23:58;;;;;;;50.90;26.63;;;4.50;99.90;;;;;;5031568;28;20029;-89
2022/12/07 10:26:32;;;;;;;194.00;91.00;;;4.70;99.90;;;;;;5031177;28;20167;-89
2022/12/07 10:29:30;;;;;;;170.60;74.45;;;4.90;99.90;;;;;;5031344;28;20038;-90
2022/12/07 10:32:00;;;;;;;404.75;178.27;;;4.70;99.90;;;;;;5031240;28;20025;-89
2022/12/07 10:34:37;;;;;;;37.92;21.70;;;5.00;99.90;;;;;;5049227;28;20029;-90
2022/12/07 10:37:09;;;;;;;27.83;15.40;;;4.80;99.90;;;;;;5055606;28;20025;-90
2022/12/07 10:39:57;;;;;;;355.63;146.93;;;5.00;99.90;;;;;;5055122;28;20025;-89
2022/12/07 10:42:25;;;;;;;243.98;102.30;;;4.80;99.90;;;;;;5055002;28;20059;-90
2022/12/07 10:45:15;;;;;;;145.70;64.95;;;4.90;99.90;;;;;;5054928;28;20104;-90
2022/12/07 10:47:49;;;;;;;429.00;169.68;;;5.10;99.90;;;;;;5055188;28;20025;-89
2022/12/07 10:50:36;;;;;;;502.15;223.70;;;5.00;99.90;;;;;;5053542;28;20519;-90
2022/12/07 10:53:05;;;;;;;28.67;18.48;;;5.00;99.90;;;;;;5054741;28;20044;-90
2022/12/07 10:55:58;;;;;;;50.13;26.67;;;4.80;99.90;;;;;;5054656;28;20032;-89
2022/12/07 10:59:11;;;;;;;23.58;15.30;;;5.00;99.90;;;;;;5054554;28;20511;-89
2022/12/07 11:01:51;;;;;;;29.85;18.48;;;5.00;99.90;;;;;;5012842;28;20421;-89
2022/12/07 11:04:50;;;;;;;18.83;12.65;;;5.20;99.90;;;;;;5012423;28;20080;-88
2022/12/07 11:07:34;;;;;;;22.10;14.80;;;5.20;99.90;;;;;;5013145;28;20056;-90
2022/12/07 11:10:11;;;;;;;18.55;12.38;;;5.20;99.90;;;;;;5012691;28;20448;-89
2022/12/07 11:12:54;;;;;;;19.23;12.20;;;5.20;99.90;;;;;;4993659;28;20057;-89
2022/12/07 11:15:29;;;;;;;20.40;12.77;;;5.20;99.90;;;;;;4992932;28;20156;-90
2022/12/07 11:18:07;;;;;;;19.90;12.45;;;5.60;99.90;;;;;;4992750;28;20034;-90
2022/12/07 11:20:48;;;;;;;17.55;12.05;;;5.40;99.90;;;;;;4992953;28;20026;-90
2022/12/07 11:23:19;;;;;;;19.75;12.32;;;5.30;99.90;;;;;;4992811;28;20027;-89
2022/12/07 11:26:05;;;;;;;19.48;13.55;;;5.20;99.90;;;;;;4992884;28;20502;-89
2022/12/07 11:28:59;;;;;;;17.75;11.77;;;5.20;99.90;;;;;;4992056;28;20066;-89
2022/12/07 11:31:33;;;;;;;22.58;12.57;;;5.20;99.90;;;;;;4992736;28;20479;-89
2022/12/07 11:34:23;;;;;;;17.48;12.15;;;5.10;99.90;;;;;;5005062;28;20025;-89
2022/12/07 11:36:56;;;;;;;19.85;13.32;;;5.20;99.90;;;;;;5017656;28;20045;-89
2022/12/07 11:39:22;;;;;;;19.42;13.07;;;5.30;99.90;;;;;;5052909;28;20032;-89
2022/12/07 11:41:51;;;;;;;21.42;14.23;;;5.10;99.90;;;;;;5053969;28;20025;-89
2022/12/07 11:44:53;;;;;;;21.17;13.98;;;4.90;99.90;;;;;;5053324;28;20024;-89
2022/12/07 11:47:36;;;;;;;21.38;13.98;;;5.10;99.90;;;;;;5053693;28;20021;-89
2022/12/07 11:50:25;;;;;;;22.33;14.23;;;5.20;99.90;;;;;;5053684;28;20036;-89
2022/12/07 11:53:19;;;;;;;22.42;15.57;;;5.30;99.90;;;;;;5052326;28;20362;-89
2022/12/07 11:56:10;;;;;;;25.90;17.20;;;5.30;99.90;;;;;;5053342;28;20473;-90
2022/12/07 11:58:57;;;;;;;25.42;15.73;;;5.20;99.90;;;;;;5045390;28;20044;-89
2022/12/07 12:01:38;;;;;;;24.83;15.80;;;5.20;99.90;;;;;;5053812;28;20401;-89
2022/12/07 12:04:10;;;;;;;21.77;14.27;;;5.40;99.90;;;;;;5053714;28;20116;-89
2022/12/07 12:06:45;;;;;;;22.77;15.23;;;5.20;99.90;;;;;;5053654;28;20444;-89
2022/12/07 12:09:24;;;;;;;21.52;14.85;;;5.20;99.90;;;;;;5053281;28;20388;-89
2022/12/07 12:12:07;;;;;;;22.67;15.05;;;5.30;99.90;;;;;;5039694;28;20026;-89
2022/12/07 12:15:17;;;;;;;21.73;15.10;;;5.40;99.90;;;;;;5033320;28;20037;-89
2022/12/07 12:18:27;;;;;;;25.17;15.98;;;5.30;99.90;;;;;;4991634;28;20069;-89
2022/12/07 12:21:02;;;;;;;21.88;14.80;;;5.10;99.90;;;;;;4991758;28;20044;-89
2022/12/07 12:23:55;;;;;;;23.35;15.93;;;5.40;99.90;;;;;;4991724;28;20059;-91
2022/12/07 12:26:27;;;;;;;22.90;15.25;;;5.20;99.90;;;;;;4990974;28;20133;-89
2022/12/07 12:28:59;;;;;;;23.73;15.55;;;5.20;99.90;;;;;;4991448;28;20121;-91
2022/12/07 12:31:28;;;;;;;24.05;15.57;;;5.10;99.90;;;;;;4991390;28;20152;-89
2022/12/07 12:33:56;;;;;;;22.48;15.02;;;5.60;99.90;;;;;;5002816;28;20097;-88
2022/12/07 12:36:45;;;;;;;24.42;16.02;;;5.50;99.90;;;;;;5011264;28;20025;-88
2022/12/07 12:39:13;;;;;;;24.27;15.77;;;5.50;99.90;;;;;;5010729;28;20026;-89
2022/12/07 12:41:39;;;;;;;23.08;14.40;;;5.50;99.90;;;;;;5010288;28;20034;-88
2022/12/07 12:44:19;;;;;;;22.63;15.15;;;5.10;99.90;;;;;;5011242;28;20021;-88
2022/12/07 12:46:57;;;;;;;24.77;15.68;;;5.00;99.90;;;;;;5011648;28;20492;-90
2022/12/07 12:49:22;;;;;;;20.83;14.20;;;5.00;99.90;;;;;;5010646;28;20169;-89
2022/12/07 12:51:57;;;;;;;20.77;13.90;;;5.00;99.90;;;;;;5010808;28;20029;-88
2022/12/07 12:54:27;;;;;;;20.05;14.15;;;5.00;99.90;;;;;;5040989;28;20069;-88
2022/12/07 12:57:05;;;;;;;23.40;15.38;;;5.00;99.90;;;;;;5050515;28;20485;-89